createdAt,value
2023-02-19T00:00:03.050Z,23
2023-02-19T00:01:03.077Z,24
2023-02-19T00:02:03.057Z,24
2023-02-19T00:03:03.051Z,23
2023-02-19T00:04:03.050Z,23
2023-02-19T00:05:03.116Z,23
2023-02-19T00:06:03.145Z,22
2023-02-19T00:07:03.054Z,24
2023-02-19T00:08:03.056Z,25
2023-02-19T00:09:03.064Z,24
2023-02-19T00:10:03.049Z,22
2023-02-19T00:11:03.049Z,25
2023-02-19T00:12:03.042Z,25
2023-02-19T00:13:03.048Z,25
2023-02-19T00:14:03.078Z,27
2023-02-19T00:15:03.082Z,24
2023-02-19T00:16:03.110Z,25
2023-02-19T00:17:03.042Z,24
2023-02-19T00:18:03.075Z,23
2023-02-19T00:19:03.043Z,26
2023-02-19T00:20:03.058Z,22
2023-02-19T00:21:03.041Z,21
2023-02-19T00:22:03.052Z,22
2023-02-19T00:23:03.051Z,20
2023-02-19T00:24:03.043Z,21
2023-02-19T00:26:16.207Z,21
2023-02-19T00:27:03.056Z,22
2023-02-19T00:28:03.057Z,21
2023-02-19T00:29:03.052Z,20
2023-02-19T00:30:03.103Z,21
2023-02-19T00:31:03.085Z,23
2023-02-19T00:32:03.123Z,20
2023-02-19T00:33:03.055Z,20
2023-02-19T00:34:03.087Z,19
2023-02-19T00:35:03.063Z,22
2023-02-19T00:36:03.148Z,21
2023-02-19T00:37:03.081Z,20
2023-02-19T00:38:03.069Z,19
2023-02-19T00:39:03.049Z,21
2023-02-19T00:40:03.050Z,19
2023-02-19T00:41:03.058Z,21
2023-02-19T00:42:03.052Z,19
2023-02-19T00:43:03.063Z,20
2023-02-19T00:44:03.083Z,18
2023-02-19T00:45:03.056Z,18
2023-02-19T00:46:03.118Z,19
2023-02-19T00:47:03.056Z,20
2023-02-19T00:48:03.048Z,19
2023-02-19T00:49:03.050Z,19
2023-02-19T00:50:03.067Z,19
2023-02-19T00:51:03.045Z,21
2023-02-19T00:52:03.090Z,25
2023-02-19T00:53:03.051Z,21
2023-02-19T00:54:03.082Z,23
2023-02-19T00:55:03.055Z,25
2023-02-19T00:56:03.064Z,22
2023-02-19T00:57:03.080Z,25
2023-02-19T00:58:03.069Z,24
2023-02-19T00:59:03.057Z,25
2023-02-19T01:00:03.070Z,26
2023-02-19T01:01:03.052Z,26
2023-02-19T01:04:04.880Z,30
2023-02-19T01:05:03.105Z,27
2023-02-19T01:06:03.065Z,29
2023-02-19T01:07:03.063Z,33
2023-02-19T01:08:03.059Z,28
2023-02-19T01:09:03.062Z,31
2023-02-19T01:10:03.061Z,28
2023-02-19T01:11:03.058Z,27
2023-02-19T01:12:03.062Z,31
2023-02-19T01:13:03.058Z,28
2023-02-19T01:14:03.077Z,30
2023-02-19T01:15:03.217Z,30
2023-02-19T01:16:03.116Z,27
2023-02-19T01:18:03.056Z,29
2023-02-19T01:19:03.061Z,31
2023-02-19T01:20:03.077Z,32
2023-02-19T01:21:03.057Z,33
2023-02-19T01:22:03.059Z,35
2023-02-19T01:23:03.059Z,39
2023-02-19T01:24:03.058Z,40
2023-02-19T01:25:03.070Z,36
2023-02-19T01:26:03.069Z,37
2023-02-19T01:27:03.060Z,46
2023-02-19T01:28:03.062Z,41
2023-02-19T01:29:03.063Z,41
2023-02-19T01:30:03.112Z,47
2023-02-19T01:31:03.095Z,40
2023-02-19T01:32:03.235Z,43
2023-02-19T01:33:03.050Z,44
2023-02-19T01:34:03.061Z,49
2023-02-19T01:35:03.070Z,46
2023-02-19T01:36:03.063Z,49
2023-02-19T01:37:03.061Z,49
2023-02-19T01:38:03.067Z,48
2023-02-19T01:39:03.071Z,41
2023-02-19T01:40:03.059Z,45
2023-02-19T01:41:03.080Z,45
2023-02-19T01:43:03.057Z,42
2023-02-19T01:44:03.064Z,41
2023-02-19T01:45:03.060Z,37
2023-02-19T01:46:03.054Z,41
2023-02-19T01:47:03.281Z,45
2023-02-19T01:48:03.112Z,37
2023-02-19T01:49:03.064Z,38
2023-02-19T01:50:03.075Z,37
2023-02-19T01:51:03.062Z,38
2023-02-19T01:52:03.063Z,36
2023-02-19T01:53:03.084Z,35
2023-02-19T01:54:03.067Z,33
2023-02-19T01:55:03.067Z,30
2023-02-19T01:56:03.066Z,32
2023-02-19T01:57:03.069Z,29
2023-02-19T01:58:03.072Z,30
2023-02-19T01:59:03.072Z,25
2023-02-19T02:00:03.064Z,27
2023-02-19T02:01:03.121Z,26
2023-02-19T02:02:03.151Z,25
2023-02-19T02:03:03.076Z,25
2023-02-19T02:04:03.071Z,25
2023-02-19T02:05:03.097Z,27
2023-02-19T02:06:03.110Z,25
2023-02-19T02:07:03.067Z,24
2023-02-19T02:08:03.066Z,22
2023-02-19T02:09:03.069Z,26
2023-02-19T02:10:03.059Z,24
2023-02-19T02:11:03.151Z,23
2023-02-19T02:12:03.067Z,23
2023-02-19T02:13:03.103Z,25
2023-02-19T02:14:03.070Z,24
2023-02-19T02:15:03.072Z,28
2023-02-19T02:16:03.103Z,23
2023-02-19T02:17:03.073Z,26
2023-02-19T02:18:03.069Z,25
2023-02-19T02:19:03.094Z,27
2023-02-19T02:20:03.084Z,27
2023-02-19T02:21:03.069Z,27
2023-02-19T02:22:03.068Z,27
2023-02-19T02:23:03.174Z,27
2023-02-19T02:25:03.071Z,31
2023-02-19T02:26:03.252Z,32
2023-02-19T02:27:03.072Z,26
2023-02-19T02:28:03.091Z,29
2023-02-19T02:29:03.069Z,27
2023-02-19T02:30:03.123Z,37
2023-02-19T02:31:03.123Z,29
2023-02-19T02:32:03.192Z,34
2023-02-19T02:33:03.068Z,28
2023-02-19T02:34:03.074Z,26
2023-02-19T02:35:03.086Z,26
2023-02-19T02:36:03.076Z,28
2023-02-19T02:37:03.077Z,29
2023-02-19T02:38:03.075Z,29
2023-02-19T02:39:03.077Z,29
2023-02-19T02:40:03.078Z,24
2023-02-19T02:41:03.073Z,33
2023-02-19T02:42:03.073Z,31
2023-02-19T02:43:03.077Z,28
2023-02-19T02:45:03.094Z,33
2023-02-19T02:46:03.153Z,30
2023-02-19T02:47:03.081Z,29
2023-02-19T02:48:03.072Z,33
2023-02-19T02:50:03.078Z,31
2023-02-19T02:51:03.104Z,33
2023-02-19T02:52:03.079Z,34
2023-02-19T02:53:03.078Z,31
2023-02-19T02:54:03.097Z,30
2023-02-19T02:55:03.098Z,30
2023-02-19T02:56:03.069Z,28
2023-02-19T02:57:03.083Z,35
2023-02-19T02:58:03.072Z,31
2023-02-19T02:59:03.089Z,25
2023-02-19T03:00:03.071Z,32
2023-02-19T03:01:03.116Z,30
2023-02-19T03:02:03.110Z,31
2023-02-19T03:03:03.093Z,30
2023-02-19T03:04:03.093Z,31
2023-02-19T03:05:03.098Z,32
2023-02-19T03:06:03.140Z,27
2023-02-19T03:07:03.079Z,27
2023-02-19T03:08:03.071Z,28
2023-02-19T03:09:03.075Z,30
2023-02-19T03:11:03.077Z,28
2023-02-19T03:12:03.081Z,29
2023-02-19T03:13:03.085Z,31
2023-02-19T03:14:03.079Z,34
2023-02-19T03:15:03.181Z,32
2023-02-19T03:16:03.080Z,28
2023-02-19T03:17:03.136Z,29
2023-02-19T03:18:03.093Z,28
2023-02-19T03:19:03.075Z,28
2023-02-19T03:20:03.077Z,25
2023-02-19T03:21:03.078Z,27
2023-02-19T03:22:03.075Z,29
2023-02-19T03:23:03.088Z,29
2023-02-19T03:24:03.109Z,29
2023-02-19T03:25:03.085Z,27
2023-02-19T03:26:03.078Z,30
2023-02-19T03:27:03.068Z,29
2023-02-19T03:28:03.083Z,24
2023-02-19T03:29:03.087Z,25
2023-02-19T03:30:03.100Z,25
2023-02-19T03:31:03.089Z,27
2023-02-19T03:32:03.172Z,28
2023-02-19T03:33:03.081Z,26
2023-02-19T03:34:03.068Z,29
2023-02-19T03:35:03.083Z,28
2023-02-19T03:36:03.086Z,23
2023-02-19T03:37:03.084Z,33
2023-02-19T03:38:03.076Z,22
2023-02-19T03:39:03.090Z,20
2023-02-19T03:40:03.078Z,25
2023-02-19T03:42:03.081Z,27
2023-02-19T03:43:03.076Z,26
2023-02-19T03:44:03.081Z,22
2023-02-19T03:45:03.080Z,28
2023-02-19T03:46:03.153Z,23
2023-02-19T03:47:03.073Z,28
2023-02-19T03:48:03.094Z,30
2023-02-19T03:49:03.088Z,29
2023-02-19T03:50:03.090Z,26
2023-02-19T03:51:03.220Z,23
2023-02-19T03:52:03.077Z,27
2023-02-19T03:53:03.074Z,22
2023-02-19T03:54:03.076Z,23
2023-02-19T03:55:03.087Z,27
2023-02-19T03:56:03.089Z,23
2023-02-19T03:57:03.087Z,25
2023-02-19T03:58:03.075Z,26
2023-02-19T03:59:03.101Z,22
2023-02-19T04:00:03.103Z,27
2023-02-19T04:01:03.088Z,23
2023-02-19T04:02:03.158Z,24
2023-02-19T04:03:03.099Z,25
2023-02-19T04:04:03.087Z,24
2023-02-19T04:05:03.133Z,27
2023-02-19T04:06:03.091Z,21
2023-02-19T04:07:03.082Z,24
2023-02-19T04:08:03.138Z,24
2023-02-19T04:09:03.118Z,24
2023-02-19T04:10:03.094Z,23
2023-02-19T04:11:03.086Z,23
2023-02-19T04:12:03.097Z,24
2023-02-19T04:14:03.091Z,23
2023-02-19T04:15:03.099Z,27
2023-02-19T04:16:03.088Z,23
2023-02-19T04:17:03.105Z,28
2023-02-19T04:18:03.097Z,25
2023-02-19T04:19:03.085Z,27
2023-02-19T04:20:03.091Z,25
2023-02-19T04:21:03.089Z,24
2023-02-19T04:22:03.088Z,24
2023-02-19T04:23:03.092Z,26
2023-02-19T04:24:03.088Z,26
2023-02-19T04:25:03.110Z,24
2023-02-19T04:26:03.093Z,24
2023-02-19T04:27:03.092Z,24
2023-02-19T04:28:03.090Z,24
2023-02-19T04:29:03.084Z,27
2023-02-19T04:30:03.129Z,24
2023-02-19T04:31:03.115Z,22
2023-02-19T04:32:03.162Z,21
2023-02-19T04:33:03.105Z,23
2023-02-19T04:35:03.084Z,26
2023-02-19T04:36:03.086Z,24
2023-02-19T04:37:03.122Z,22
2023-02-19T04:38:03.080Z,23
2023-02-19T04:39:03.162Z,21
2023-02-19T04:40:03.089Z,23
2023-02-19T04:41:03.086Z,23
2023-02-19T04:42:03.090Z,27
2023-02-19T04:43:03.086Z,27
2023-02-19T04:45:03.094Z,24
2023-02-19T04:46:03.140Z,27
2023-02-19T04:47:03.101Z,23
2023-02-19T04:48:03.100Z,21
2023-02-19T04:50:03.108Z,21
2023-02-19T04:51:03.096Z,19
2023-02-19T04:52:03.086Z,23
2023-02-19T04:53:03.083Z,23
2023-02-19T04:54:03.093Z,21
2023-02-19T04:55:03.092Z,23
2023-02-19T04:56:03.100Z,23
2023-02-19T04:57:03.091Z,17
2023-02-19T04:58:03.087Z,24
2023-02-19T04:59:03.090Z,22
2023-02-19T05:00:03.096Z,25
2023-02-19T05:01:03.085Z,24
2023-02-19T05:02:03.100Z,26
2023-02-19T05:03:03.093Z,22
2023-02-19T05:04:03.134Z,28
2023-02-19T05:05:03.089Z,23
2023-02-19T05:06:03.095Z,25
2023-02-19T05:07:03.093Z,27
2023-02-19T05:08:03.099Z,20
2023-02-19T05:09:03.175Z,24
2023-02-19T05:10:03.094Z,29
2023-02-19T05:11:03.087Z,19
2023-02-19T05:12:03.086Z,26
2023-02-19T05:13:03.088Z,22
2023-02-19T05:14:03.108Z,29
2023-02-19T05:15:03.097Z,21
2023-02-19T05:16:03.159Z,26
2023-02-19T05:17:03.088Z,24
2023-02-19T05:18:03.093Z,19
2023-02-19T05:19:03.090Z,23
2023-02-19T05:20:03.093Z,25
2023-02-19T05:21:03.170Z,24
2023-02-19T05:22:03.099Z,26
2023-02-19T05:23:03.091Z,28
2023-02-19T05:24:03.143Z,23
2023-02-19T05:25:03.109Z,26
2023-02-19T05:26:03.111Z,22
2023-02-19T05:27:03.111Z,26
2023-02-19T05:28:03.105Z,24
2023-02-19T05:29:03.108Z,24
2023-02-19T05:30:03.110Z,23
2023-02-19T05:31:03.140Z,24
2023-02-19T05:32:03.116Z,25
2023-02-19T05:33:03.094Z,24
2023-02-19T05:35:03.102Z,30
2023-02-19T05:36:03.088Z,21
2023-02-19T05:37:03.101Z,22
2023-02-19T05:38:03.106Z,25
2023-02-19T05:39:03.093Z,23
2023-02-19T05:40:03.088Z,23
2023-02-19T05:41:03.091Z,25
2023-02-19T05:42:03.115Z,27
2023-02-19T05:43:03.097Z,22
2023-02-19T05:44:03.109Z,25
2023-02-19T05:45:03.379Z,25
2023-02-19T05:46:03.107Z,24
2023-02-19T05:47:03.112Z,20
2023-02-19T05:48:03.103Z,20
2023-02-19T05:49:03.090Z,22
2023-02-19T05:50:03.130Z,22
2023-02-19T05:51:03.116Z,20
2023-02-19T05:52:03.125Z,20
2023-02-19T05:53:03.097Z,29
2023-02-19T05:54:03.108Z,16
2023-02-19T05:55:03.108Z,22
2023-02-19T05:56:03.139Z,22
2023-02-19T05:57:03.109Z,19
2023-02-19T05:58:03.098Z,20
2023-02-19T05:59:03.110Z,28
2023-02-19T06:00:03.106Z,21
2023-02-19T06:01:03.108Z,20
2023-02-19T06:02:03.096Z,26
2023-02-19T06:03:03.192Z,24
2023-02-19T06:04:03.174Z,25
2023-02-19T06:06:03.108Z,21
2023-02-19T06:07:03.098Z,24
2023-02-19T06:08:03.117Z,24
2023-02-19T06:09:03.120Z,17
2023-02-19T06:10:03.118Z,18
2023-02-19T06:11:03.104Z,17
2023-02-19T06:12:03.112Z,20
2023-02-19T06:13:03.101Z,18
2023-02-19T06:14:03.104Z,19
2023-02-19T06:15:03.101Z,16
2023-02-19T06:17:03.100Z,22
2023-02-19T06:18:03.096Z,17
2023-02-19T06:19:03.102Z,17
2023-02-19T06:20:03.283Z,20
2023-02-19T06:21:03.114Z,16
2023-02-19T06:22:03.119Z,17
2023-02-19T06:23:03.097Z,21
2023-02-19T06:24:03.108Z,20
2023-02-19T06:25:03.112Z,20
2023-02-19T06:26:03.103Z,21
2023-02-19T06:27:03.128Z,18
2023-02-19T06:28:03.105Z,20
2023-02-19T06:29:03.123Z,19
2023-02-19T06:30:03.200Z,15
2023-02-19T06:31:03.137Z,21
2023-02-19T06:32:03.303Z,18
2023-02-19T06:33:03.101Z,18
2023-02-19T06:34:03.119Z,17
2023-02-19T06:35:03.110Z,24
2023-02-19T06:36:03.106Z,20
2023-02-19T06:38:03.114Z,17
2023-02-19T06:39:03.157Z,17
2023-02-19T06:40:03.111Z,17
2023-02-19T06:41:03.109Z,20
2023-02-19T06:42:03.112Z,17
2023-02-19T06:43:03.125Z,18
2023-02-19T06:44:03.120Z,22
2023-02-19T06:45:03.109Z,21
2023-02-19T06:46:03.117Z,17
2023-02-19T06:48:03.112Z,18
2023-02-19T06:49:03.108Z,18
2023-02-19T06:50:03.114Z,20
2023-02-19T06:51:03.214Z,22
2023-02-19T06:53:03.126Z,20
2023-02-19T06:54:03.122Z,15
2023-02-19T06:55:03.114Z,21
2023-02-19T06:56:03.123Z,18
2023-02-19T06:57:03.110Z,19
2023-02-19T06:58:03.117Z,17
2023-02-19T06:59:03.117Z,18
2023-02-19T07:00:03.174Z,23
2023-02-19T07:01:03.253Z,24
2023-02-19T07:02:03.116Z,19
2023-02-19T07:03:05.439Z,18
2023-02-19T07:04:03.183Z,15
2023-02-19T07:05:03.104Z,17
2023-02-19T07:06:03.187Z,19
2023-02-19T07:07:03.114Z,20
2023-02-19T07:08:03.123Z,14
2023-02-19T07:09:03.115Z,18
2023-02-19T07:10:03.114Z,15
2023-02-19T07:11:03.104Z,12
2023-02-19T07:12:03.151Z,16
2023-02-19T07:13:03.122Z,16
2023-02-19T07:14:03.119Z,19
2023-02-19T07:15:03.133Z,15
2023-02-19T07:16:03.155Z,15
2023-02-19T07:17:03.109Z,16
2023-02-19T07:18:03.110Z,15
2023-02-19T07:19:03.135Z,15
2023-02-19T07:20:03.107Z,15
2023-02-19T07:21:03.109Z,15
2023-02-19T07:22:03.110Z,16
2023-02-19T07:24:03.116Z,15
2023-02-19T07:25:03.130Z,16
2023-02-19T07:26:03.135Z,16
2023-02-19T07:27:03.128Z,17
2023-02-19T07:28:03.117Z,16
2023-02-19T07:30:03.299Z,14
2023-02-19T07:31:03.134Z,15
2023-02-19T07:32:03.145Z,16
2023-02-19T07:33:03.123Z,18
2023-02-19T07:34:03.122Z,13
2023-02-19T07:35:03.113Z,16
2023-02-19T07:36:03.114Z,13
2023-02-19T07:37:03.153Z,18
2023-02-19T07:38:03.109Z,17
2023-02-19T07:39:03.131Z,12
2023-02-19T07:40:03.112Z,18
2023-02-19T07:41:03.111Z,18
2023-02-19T07:42:03.119Z,15
2023-02-19T07:44:03.122Z,18
2023-02-19T07:45:03.119Z,16
2023-02-19T07:46:03.160Z,17
2023-02-19T07:47:03.109Z,18
2023-02-19T07:49:03.115Z,15
2023-02-19T07:50:03.134Z,20
2023-02-19T07:51:03.166Z,16
2023-02-19T07:52:03.120Z,13
2023-02-19T07:53:03.118Z,16
2023-02-19T07:54:03.134Z,17
2023-02-19T07:55:03.112Z,14
2023-02-19T07:56:03.122Z,17
2023-02-19T07:57:03.114Z,14
2023-02-19T07:58:05.214Z,16
2023-02-19T07:59:03.127Z,17
2023-02-19T08:00:03.126Z,16
2023-02-19T08:01:03.142Z,16
2023-02-19T08:02:03.130Z,19
2023-02-19T08:03:03.254Z,21
2023-02-19T08:04:03.122Z,18
2023-02-19T08:05:03.125Z,18
2023-02-19T08:06:03.130Z,17
2023-02-19T08:07:03.132Z,19
2023-02-19T08:08:03.125Z,15
2023-02-19T08:09:03.120Z,17
2023-02-19T08:10:03.124Z,15
2023-02-19T08:11:03.128Z,16
2023-02-19T08:12:03.122Z,14
2023-02-19T08:13:03.121Z,14
2023-02-19T08:14:03.129Z,19
2023-02-19T08:15:03.118Z,19
2023-02-19T08:16:16.994Z,17
2023-02-19T08:17:03.142Z,18
2023-02-19T08:18:03.125Z,16
2023-02-19T08:20:03.116Z,24
2023-02-19T08:21:03.124Z,21
2023-02-19T08:22:03.121Z,26
2023-02-19T08:23:03.126Z,28
2023-02-19T08:24:03.148Z,23
2023-02-19T08:25:03.179Z,22
2023-02-19T08:26:03.131Z,20
2023-02-19T08:27:03.144Z,22
2023-02-19T08:28:03.130Z,18
2023-02-19T08:29:03.128Z,19
2023-02-19T08:30:03.177Z,20
2023-02-19T08:31:03.233Z,17
2023-02-19T08:32:03.179Z,21
2023-02-19T08:33:03.133Z,19
2023-02-19T08:34:03.128Z,24
2023-02-19T08:35:03.128Z,21
2023-02-19T08:36:03.130Z,18
2023-02-19T08:37:03.127Z,16
2023-02-19T08:38:03.125Z,19
2023-02-19T08:39:03.132Z,16
2023-02-19T08:40:03.124Z,17
2023-02-19T08:41:03.199Z,20
2023-02-19T08:42:03.133Z,18
2023-02-19T08:43:03.122Z,22
2023-02-19T08:44:03.133Z,25
2023-02-19T08:45:03.128Z,21
2023-02-19T08:46:03.135Z,24
2023-02-19T08:47:03.135Z,18
2023-02-19T08:48:03.135Z,20
2023-02-19T08:49:03.145Z,17
2023-02-19T08:50:03.142Z,21
2023-02-19T08:51:03.125Z,16
2023-02-19T08:52:03.125Z,19
2023-02-19T08:53:03.120Z,20
2023-02-19T08:54:03.133Z,19
2023-02-19T08:55:03.124Z,16
2023-02-19T08:56:03.134Z,20
2023-02-19T08:57:03.132Z,17
2023-02-19T08:58:03.126Z,18
2023-02-19T08:59:03.903Z,18
2023-02-19T09:00:03.127Z,22
2023-02-19T09:01:03.174Z,24
2023-02-19T09:02:03.128Z,18
2023-02-19T09:03:03.134Z,15
2023-02-19T09:04:03.135Z,22
2023-02-19T09:05:03.133Z,17
2023-02-19T09:06:03.120Z,16
2023-02-19T09:07:03.128Z,16
2023-02-19T09:08:03.117Z,16
2023-02-19T09:09:03.144Z,19
2023-02-19T09:10:03.121Z,17
2023-02-19T09:12:03.118Z,16
2023-02-19T09:13:03.206Z,17
2023-02-19T09:14:03.127Z,18
2023-02-19T09:15:03.126Z,16
2023-02-19T09:16:03.260Z,18
2023-02-19T09:17:03.135Z,15
2023-02-19T09:18:03.137Z,18
2023-02-19T09:19:03.153Z,17
2023-02-19T09:20:03.123Z,15
2023-02-19T09:21:03.139Z,15
2023-02-19T09:22:03.135Z,20
2023-02-19T09:23:03.123Z,14
2023-02-19T09:24:03.132Z,23
2023-02-19T09:25:03.137Z,21
2023-02-19T09:26:03.149Z,16
2023-02-19T09:27:03.151Z,15
2023-02-19T09:28:03.132Z,19
2023-02-19T09:29:03.132Z,20
2023-02-19T09:30:03.160Z,17
2023-02-19T09:31:03.202Z,16
2023-02-19T09:33:03.178Z,14
2023-02-19T09:34:03.132Z,17
2023-02-19T09:35:03.181Z,15
2023-02-19T09:36:03.129Z,14
2023-02-19T09:38:03.129Z,18
2023-02-19T09:39:03.132Z,13
2023-02-19T09:40:03.129Z,18
2023-02-19T09:41:03.132Z,14
2023-02-19T09:42:03.133Z,12
2023-02-19T09:43:03.148Z,13
2023-02-19T09:44:03.140Z,16
2023-02-19T09:45:03.133Z,12
2023-02-19T09:46:03.157Z,11
2023-02-19T09:48:03.132Z,11
2023-02-19T09:49:03.132Z,14
2023-02-19T09:50:03.150Z,13
2023-02-19T09:51:03.132Z,15
2023-02-19T09:52:03.142Z,17
2023-02-19T09:53:03.137Z,10
2023-02-19T09:54:03.164Z,12
2023-02-19T09:55:03.156Z,12
2023-02-19T09:56:03.137Z,16
2023-02-19T09:57:03.138Z,13
2023-02-19T09:58:03.137Z,14
2023-02-19T09:59:03.140Z,12
2023-02-19T10:00:03.155Z,12
2023-02-19T10:01:03.154Z,11
2023-02-19T10:02:03.131Z,12
2023-02-19T10:03:03.131Z,10
2023-02-19T10:04:03.130Z,13
2023-02-19T10:05:03.210Z,8
2023-02-19T10:06:03.140Z,11
2023-02-19T10:08:03.128Z,12
2023-02-19T10:09:03.131Z,10
2023-02-19T10:10:03.133Z,12
2023-02-19T10:11:03.136Z,10
2023-02-19T10:13:03.138Z,11
2023-02-19T10:14:03.145Z,11
2023-02-19T10:15:03.148Z,10
2023-02-19T10:16:03.164Z,12
2023-02-19T10:17:03.142Z,8
2023-02-19T10:18:03.135Z,11
2023-02-19T10:19:03.136Z,9
2023-02-19T10:20:03.146Z,7
2023-02-19T10:21:03.149Z,9
2023-02-19T10:22:03.154Z,8
2023-02-19T10:23:03.146Z,9
2023-02-19T10:24:03.135Z,9
2023-02-19T10:25:03.132Z,5
2023-02-19T10:26:03.151Z,10
2023-02-19T10:27:03.128Z,8
2023-02-19T10:29:03.141Z,6
2023-02-19T10:30:03.183Z,6
2023-02-19T10:31:03.281Z,10
2023-02-19T10:32:03.190Z,8
2023-02-19T10:33:03.129Z,8
2023-02-19T10:34:03.140Z,8
2023-02-19T10:35:03.141Z,7
2023-02-19T10:36:03.139Z,8
2023-02-19T10:37:03.181Z,7
2023-02-19T10:38:03.137Z,8
2023-02-19T10:39:03.133Z,8
2023-02-19T10:40:03.154Z,9
2023-02-19T10:41:03.152Z,10
2023-02-19T10:42:03.146Z,9
2023-02-19T10:43:03.139Z,9
2023-02-19T10:44:03.146Z,9
2023-02-19T10:45:03.145Z,9
2023-02-19T10:46:03.143Z,9
2023-02-19T10:47:03.145Z,7
2023-02-19T10:48:03.139Z,9
2023-02-19T10:49:03.144Z,5
2023-02-19T10:50:04.767Z,12
2023-02-19T10:51:03.142Z,9
2023-02-19T10:52:03.153Z,7
2023-02-19T10:53:03.161Z,8
2023-02-19T10:54:03.181Z,7
2023-02-19T10:55:03.145Z,7
2023-02-19T10:56:03.138Z,8
2023-02-19T10:57:03.152Z,8
2023-02-19T10:59:03.140Z,9
2023-02-19T11:00:03.152Z,7
2023-02-19T11:01:05.322Z,7
2023-02-19T11:02:03.228Z,7
2023-02-19T11:03:03.169Z,6
2023-02-19T11:04:03.153Z,7
2023-02-19T11:05:03.145Z,5
2023-02-19T11:06:03.168Z,8
2023-02-19T11:07:03.159Z,6
2023-02-19T11:08:03.140Z,5
2023-02-19T11:09:03.158Z,8
2023-02-19T11:10:03.149Z,6
2023-02-19T11:11:03.141Z,6
2023-02-19T11:12:03.165Z,7
2023-02-19T11:13:03.176Z,6
2023-02-19T11:14:03.148Z,5
2023-02-19T11:15:03.142Z,6
2023-02-19T11:16:03.185Z,5
2023-02-19T11:17:03.140Z,6
2023-02-19T11:18:03.166Z,4
2023-02-19T11:19:03.161Z,5
2023-02-19T11:20:03.143Z,6
2023-02-19T11:21:03.148Z,7
2023-02-19T11:22:03.155Z,7
2023-02-19T11:23:03.165Z,6
2023-02-19T11:24:03.151Z,5
2023-02-19T11:25:03.155Z,7
2023-02-19T11:26:03.143Z,11
2023-02-19T11:27:03.147Z,8
2023-02-19T11:28:03.219Z,7
2023-02-19T11:29:03.143Z,5
2023-02-19T11:30:03.158Z,8
2023-02-19T11:31:03.176Z,6
2023-02-19T11:32:03.226Z,5
2023-02-19T11:33:03.153Z,8
2023-02-19T11:36:03.157Z,5
2023-02-19T11:37:03.164Z,5
2023-02-19T11:38:03.161Z,6
2023-02-19T11:39:03.170Z,6
2023-02-19T11:41:03.154Z,5
2023-02-19T11:42:03.158Z,5
2023-02-19T11:43:03.178Z,7
2023-02-19T11:44:03.166Z,4
2023-02-19T11:45:03.230Z,6
2023-02-19T11:46:03.155Z,7
2023-02-19T11:47:03.166Z,4
2023-02-19T11:49:03.158Z,4
2023-02-19T11:50:03.185Z,6
2023-02-19T11:51:03.158Z,7
2023-02-19T11:52:03.194Z,4
2023-02-19T11:53:03.154Z,6
2023-02-19T11:54:03.167Z,4
2023-02-19T11:55:03.163Z,3
2023-02-19T11:56:03.162Z,4
2023-02-19T11:57:03.166Z,6
2023-02-19T11:58:03.153Z,4
2023-02-19T11:59:03.153Z,5
2023-02-19T12:00:03.175Z,9
2023-02-19T12:01:03.161Z,6
2023-02-19T12:02:03.218Z,5
2023-02-19T12:03:03.165Z,6
2023-02-19T12:04:03.178Z,5
2023-02-19T12:05:03.274Z,6
2023-02-19T12:06:03.159Z,4
2023-02-19T12:07:03.175Z,6
2023-02-19T12:08:03.173Z,3
2023-02-19T12:09:03.171Z,6
2023-02-19T12:10:03.155Z,6
2023-02-19T12:12:03.160Z,5
2023-02-19T12:13:03.164Z,5
2023-02-19T12:14:03.176Z,4
2023-02-19T12:15:03.162Z,4
2023-02-19T12:16:03.321Z,3
2023-02-19T12:17:03.158Z,6
2023-02-19T12:18:03.164Z,7
2023-02-19T12:19:03.161Z,4
2023-02-19T12:20:03.189Z,6
2023-02-19T12:22:03.173Z,5
2023-02-19T12:23:03.159Z,4
2023-02-19T12:24:03.172Z,7
2023-02-19T12:25:03.186Z,5
2023-02-19T12:26:03.156Z,5
2023-02-19T12:27:03.180Z,4
2023-02-19T12:28:03.171Z,6
2023-02-19T12:29:03.160Z,6
2023-02-19T12:30:03.207Z,6
2023-02-19T12:32:03.210Z,4
2023-02-19T12:33:03.167Z,7
2023-02-19T12:34:03.164Z,7
2023-02-19T12:35:03.174Z,3
2023-02-19T12:36:03.170Z,5
2023-02-19T12:37:03.188Z,3
2023-02-19T12:38:03.160Z,7
2023-02-19T12:39:03.164Z,7
2023-02-19T12:40:03.165Z,4
2023-02-19T12:41:03.164Z,3
2023-02-19T12:42:03.164Z,5
2023-02-19T12:43:03.169Z,2
2023-02-19T12:44:03.179Z,2
2023-02-19T12:45:03.179Z,4
2023-02-19T12:46:03.233Z,3
2023-02-19T12:47:03.159Z,3
2023-02-19T12:48:03.164Z,4
2023-02-19T12:50:03.168Z,5
2023-02-19T12:51:03.176Z,4
2023-02-19T12:52:03.186Z,2
2023-02-19T12:53:03.178Z,5
2023-02-19T12:55:03.165Z,4
2023-02-19T12:56:03.176Z,5
2023-02-19T12:57:03.213Z,2
2023-02-19T12:58:04.351Z,4
2023-02-19T12:59:03.183Z,2
2023-02-19T13:00:03.171Z,4
2023-02-19T13:01:03.242Z,5
2023-02-19T13:02:03.220Z,2
2023-02-19T13:03:03.173Z,3
2023-02-19T13:04:03.187Z,2
2023-02-19T13:05:03.166Z,3
2023-02-19T13:06:03.193Z,4
2023-02-19T13:07:03.164Z,4
2023-02-19T13:08:03.175Z,3
2023-02-19T13:09:06.813Z,2
2023-02-19T13:10:03.322Z,3
2023-02-19T13:11:03.198Z,4
2023-02-19T13:12:03.175Z,3
2023-02-19T13:13:03.174Z,5
2023-02-19T13:14:03.175Z,5
2023-02-19T13:16:03.173Z,6
2023-02-19T13:17:03.233Z,4
2023-02-19T13:18:03.176Z,4
2023-02-19T13:19:03.173Z,5
2023-02-19T13:20:03.198Z,5
2023-02-19T13:21:03.178Z,3
2023-02-19T13:22:03.186Z,5
2023-02-19T13:23:03.184Z,3
2023-02-19T13:24:03.183Z,4
2023-02-19T13:26:03.197Z,4
2023-02-19T13:27:03.176Z,3
2023-02-19T13:28:03.180Z,4
2023-02-19T13:29:03.190Z,7
2023-02-19T13:30:03.235Z,4
2023-02-19T13:31:03.263Z,3
2023-02-19T13:32:03.293Z,4
2023-02-19T13:33:03.175Z,4
2023-02-19T13:34:03.180Z,4
2023-02-19T13:35:03.173Z,4
2023-02-19T13:36:03.174Z,4
2023-02-19T13:37:03.182Z,3
2023-02-19T13:38:03.176Z,3
2023-02-19T13:39:03.181Z,6
2023-02-19T13:40:03.185Z,5
2023-02-19T13:41:03.209Z,5
2023-02-19T13:42:03.179Z,4
2023-02-19T13:43:03.178Z,4
2023-02-19T13:44:03.181Z,4
2023-02-19T13:45:03.192Z,5
2023-02-19T13:47:03.181Z,6
2023-02-19T13:48:03.199Z,5
2023-02-19T13:49:03.198Z,5
2023-02-19T13:50:03.182Z,4
2023-02-19T13:51:03.189Z,6
2023-02-19T13:52:03.183Z,4
2023-02-19T13:53:03.262Z,6
2023-02-19T13:54:03.195Z,4
2023-02-19T13:55:03.188Z,7
2023-02-19T13:57:03.205Z,4
2023-02-19T13:58:03.205Z,5
2023-02-19T13:59:03.190Z,6
2023-02-19T14:00:03.194Z,4
2023-02-19T14:02:03.181Z,4
2023-02-19T14:03:03.178Z,6
2023-02-19T14:04:03.180Z,5
2023-02-19T14:05:03.202Z,4
2023-02-19T14:06:03.222Z,6
2023-02-19T14:08:03.197Z,5
2023-02-19T14:09:03.179Z,8
2023-02-19T14:10:03.196Z,5
2023-02-19T14:11:03.204Z,6
2023-02-19T14:12:03.204Z,7
2023-02-19T14:13:03.185Z,4
2023-02-19T14:14:03.195Z,10
2023-02-19T14:15:03.198Z,5
2023-02-19T14:16:03.262Z,6
2023-02-19T14:17:03.190Z,6
2023-02-19T14:19:03.190Z,5
2023-02-19T14:20:03.193Z,8
2023-02-19T14:21:03.172Z,9
2023-02-19T14:23:03.205Z,5
2023-02-19T14:24:03.189Z,9
2023-02-19T14:25:03.211Z,8
2023-02-19T14:26:03.220Z,11
2023-02-19T14:28:03.185Z,7
2023-02-19T14:29:03.187Z,7
2023-02-19T14:30:03.223Z,9
2023-02-19T14:31:03.240Z,10
2023-02-19T14:33:10.696Z,9
2023-02-19T14:34:03.537Z,10
2023-02-19T14:35:03.185Z,8
2023-02-19T14:36:03.205Z,9
2023-02-19T14:37:03.194Z,5
2023-02-19T14:38:03.192Z,6
2023-02-19T14:39:03.181Z,9
2023-02-19T14:40:03.199Z,13
2023-02-19T14:41:03.190Z,9
2023-02-19T14:42:03.195Z,7
2023-02-19T14:43:03.177Z,7
2023-02-19T14:44:03.272Z,5
2023-02-19T14:45:03.209Z,7
2023-02-19T14:46:03.203Z,6
2023-02-19T14:47:03.183Z,7
2023-02-19T14:48:03.182Z,7
2023-02-19T14:49:03.192Z,9
2023-02-19T14:50:03.194Z,8
2023-02-19T14:51:03.190Z,9
2023-02-19T14:52:03.182Z,7
2023-02-19T14:53:03.195Z,7
2023-02-19T14:54:03.197Z,7
2023-02-19T14:55:03.209Z,11
2023-02-19T14:56:03.190Z,8
2023-02-19T14:57:03.186Z,10
2023-02-19T14:58:03.185Z,9
2023-02-19T14:59:03.195Z,7
2023-02-19T15:00:03.258Z,7
2023-02-19T15:01:03.184Z,6
2023-02-19T15:02:03.182Z,12
2023-02-19T15:05:03.315Z,9
2023-02-19T15:06:03.184Z,10
2023-02-19T15:07:03.200Z,14
2023-02-19T15:08:03.189Z,9
2023-02-19T15:09:03.198Z,10
2023-02-19T15:10:04.986Z,11
2023-02-19T15:11:03.186Z,8
2023-02-19T15:12:03.185Z,8
2023-02-19T15:13:03.198Z,8
2023-02-19T15:14:03.194Z,11
2023-02-19T15:15:03.187Z,13
2023-02-19T15:16:03.251Z,9
2023-02-19T15:17:03.197Z,9
2023-02-19T15:18:03.199Z,12